Time;durP1;ratioP1;P1;durP2;ratioP2;P2;SDS_P1;SDS_P2;PMS_P1;PMS_P2;Temp;Humidity;BMP_temperature;BMP_pressure;BME280_temperature;BME280_humidity;BME280_pressure;Samples;Min_cycle;Max_cycle;Signal;HPM_P1;HPM_P2
2022/08/05 00:02:05;;;;;;;15.75;6.60;;;;;;;23.43;79.51;100380.41;5089479;28;20042;-68
2022/08/05 00:05:09;;;;;;;22.17;7.80;;;;;;;23.60;78.70;100363.38;5090555;28;20043;-69
2022/08/05 00:08:13;;;;;;;17.45;6.18;;;;;;;23.43;79.01;100372.41;5076450;28;20046;-69
2022/08/05 00:11:16;;;;;;;15.55;5.93;;;;;;;23.39;81.33;100398.59;5088980;28;20153;-68
2022/08/05 00:14:20;;;;;;;17.85;7.45;;;;;;;23.25;81.50;100375.22;5088642;28;20093;-68
2022/08/05 00:17:23;;;;;;;15.88;5.65;;;;;;;23.38;81.86;100337.38;5086193;28;20042;-70
2022/08/05 00:20:26;;;;;;;16.40;6.20;;;;;;;23.57;80.08;100371.72;5088148;28;20039;-70
2022/08/05 00:23:30;;;;;;;18.23;6.03;;;;;;;23.31;82.05;100398.56;5087407;28;20089;-70
2022/08/05 00:26:33;;;;;;;12.95;5.60;;;;;;;23.52;81.58;100389.25;5089379;28;20224;-70
2022/08/05 00:29:37;;;;;;;13.68;5.95;;;;;;;23.05;83.73;100387.22;5086322;28;20034;-70
2022/08/05 00:32:40;;;;;;;15.18;6.20;;;;;;;23.19;82.56;100386.56;5074279;28;20039;-71
2022/08/05 00:35:43;;;;;;;18.67;5.57;;;;;;;23.32;82.13;100376.22;5086187;28;20104;-71
2022/08/05 00:38:46;;;;;;;15.18;6.18;;;;;;;23.21;82.05;100363.22;5086432;28;20058;-70
2022/08/05 00:41:50;;;;;;;15.02;7.32;;;;;;;23.11;83.06;100346.56;5087569;28;20051;-70
2022/08/05 00:45:19;;;;;;;18.23;7.03;;;;;;;23.03;83.06;100295.88;5086599;28;20039;-72
2022/08/05 00:48:23;;;;;;;16.55;7.50;;;;;;;22.96;83.25;100261.88;5087052;28;20050;-70
2022/08/05 00:51:27;;;;;;;14.57;6.75;;;;;;;22.93;83.48;100232.88;5090453;28;20459;-69
2022/08/05 00:54:33;;;;;;;17.92;7.20;;;;;;;22.68;83.53;100180.56;5089817;28;20046;-70
2022/08/05 00:57:37;;;;;;;11.80;6.55;;;;;;;22.70;83.16;100202.56;5090242;28;20116;-70
2022/08/05 01:00:40;;;;;;;17.10;7.43;;;;;;;22.91;81.25;100266.88;5090571;28;20467;-70
2022/08/05 01:03:44;;;;;;;18.67;8.00;;;;;;;22.24;85.93;100327.34;5087993;28;20450;-70
2022/08/05 01:06:47;;;;;;;16.48;7.25;;;;;;;22.54;86.29;100327.78;5087579;28;20047;-70
2022/08/05 01:09:51;;;;;;;14.00;8.27;;;;;;;22.54;84.71;100343.75;5088259;28;20050;-70
2022/08/05 01:13:02;;;;;;;12.80;6.53;;;;;;;22.65;84.77;100320.28;5088735;28;20047;-70
2022/08/05 01:16:13;;;;;;;12.52;6.80;;;;;;;22.98;82.61;100323.88;5088458;28;20093;-70
2022/08/05 01:19:22;;;;;;;13.88;7.20;;;;;;;23.14;82.12;100320.41;5088464;28;20051;-70
2022/08/05 01:23:00;;;;;;;19.00;7.82;;;;;;;23.19;82.07;100317.22;5088680;28;20101;-70
2022/08/05 01:26:31;;;;;;;12.13;7.03;;;;;;;23.20;81.98;100292.22;5088412;28;20574;-70
2022/08/05 01:29:44;;;;;;;14.70;7.95;;;;;;;22.79;83.48;100273.53;5088279;28;20062;-70
2022/08/05 01:32:50;;;;;;;12.32;7.78;;;;;;;22.76;84.25;100273.84;5089080;28;20047;-70
2022/08/05 01:35:58;;;;;;;17.10;7.88;;;;;;;22.69;84.47;100283.50;5088998;28;20051;-70
2022/08/05 01:39:01;;;;;;;13.88;8.07;;;;;;;22.63;84.66;100246.84;5084594;28;20658;-70
2022/08/05 01:42:07;;;;;;;14.20;8.55;;;;;;;22.67;84.94;100221.53;5068316;28;20413;-70
2022/08/05 01:45:13;;;;;;;15.50;8.30;;;;;;;22.81;83.64;100230.69;5068432;28;20051;-70
2022/08/05 01:48:18;;;;;;;13.30;7.53;;;;;;;22.72;85.00;100229.88;5068005;28;20204;-70
2022/08/05 01:51:23;;;;;;;9.80;7.95;;;;;;;22.61;85.05;100238.19;5067576;28;20492;-70
2022/08/05 01:54:34;;;;;;;13.73;8.77;;;;;;;22.20;87.38;100224.78;5067884;28;20417;-70
2022/08/05 01:57:42;;;;;;;12.35;7.85;;;;;;;22.31;86.45;100181.88;5067892;28;20094;-71
2022/08/05 02:00:49;;;;;;;14.95;8.50;;;;;;;22.35;86.66;100180.53;5067491;28;20177;-70
2022/08/05 02:03:54;;;;;;;16.15;7.72;;;;;;;22.41;86.60;100195.88;5067759;28;20047;-70
2022/08/05 02:06:58;;;;;;;14.05;8.07;;;;;;;22.36;85.84;100211.50;5073180;28;20572;-70
2022/08/05 02:10:04;;;;;;;14.50;8.63;;;;;;;22.31;86.93;100200.53;5067008;28;20052;-71
2022/08/05 02:13:14;;;;;;;13.57;7.75;;;;;;;22.26;87.67;100209.00;5055670;28;20094;-70
2022/08/05 02:16:31;;;;;;;12.23;7.43;;;;;;;22.35;87.42;100222.34;5067845;28;20048;-69
2022/08/05 02:19:41;;;;;;;13.35;9.55;;;;;;;22.43;86.37;100214.34;5067132;28;20421;-70
2022/08/05 02:22:48;;;;;;;13.70;8.90;;;;;;;22.38;86.04;100206.03;5067180;28;20458;-70
2022/08/05 02:25:53;;;;;;;11.80;8.77;;;;;;;22.28;86.69;100211.50;5067162;28;20047;-70
2022/08/05 02:28:56;;;;;;;11.30;8.60;;;;;;;22.32;86.50;100217.34;5067337;28;20048;-70
2022/08/05 02:32:01;;;;;;;16.90;8.32;;;;;;;22.34;86.28;100240.16;5055154;28;20566;-70
2022/08/05 02:35:12;;;;;;;13.60;8.48;;;;;;;21.97;88.62;100275.94;5068307;28;20078;-70
2022/08/05 02:38:17;;;;;;;19.98;8.45;;;;;;;22.21;87.95;100277.06;5065088;28;20066;-70
2022/08/05 02:41:24;;;;;;;12.27;8.27;;;;;;;21.99;89.91;100289.94;5067641;28;20056;-70
2022/08/05 02:44:29;;;;;;;13.30;8.85;;;;;;;21.87;90.27;100299.19;5068135;28;20441;-70
2022/08/05 02:47:35;;;;;;;16.38;8.35;;;;;;;21.94;89.72;100321.50;5067214;28;20170;-70
2022/08/05 02:50:42;;;;;;;16.30;8.90;;;;;;;22.09;89.32;100335.06;5067669;28;20436;-70
2022/08/05 02:53:48;;;;;;;14.23;8.38;;;;;;;22.15;88.52;100354.91;5067099;28;20099;-70
2022/08/05 02:56:51;;;;;;;13.07;9.18;;;;;;;22.37;87.37;100359.69;5067289;28;20411;-70
2022/08/05 02:59:55;;;;;;;14.65;8.95;;;;;;;22.06;88.77;100373.50;5054567;28;20444;-70
2022/08/05 03:03:01;;;;;;;15.35;8.27;;;;;;;21.97;89.66;100398.41;5067169;28;20118;-71
2022/08/05 03:06:04;;;;;;;11.80;8.13;;;;;;;21.96;88.06;100388.75;5090983;28;20051;-70
2022/08/05 03:09:12;;;;;;;10.27;8.07;;;;;;;22.00;86.88;100403.41;5093202;28;20142;-70
2022/08/05 03:12:30;;;;;;;13.75;8.93;;;;;;;22.15;86.86;100414.31;5080439;28;20112;-70
2022/08/05 03:15:33;;;;;;;14.23;8.65;;;;;;;22.05;87.46;100409.13;5092397;28;20051;-70
2022/08/05 03:18:36;;;;;;;13.95;7.97;;;;;;;22.19;86.89;100415.69;5091303;28;20047;-70
2022/08/05 03:21:40;;;;;;;13.20;7.25;;;;;;;22.47;85.68;100402.19;5092792;28;20042;-71
2022/08/05 03:24:45;;;;;;;15.32;8.65;;;;;;;22.39;86.48;100416.28;5092055;28;20035;-70
2022/08/05 03:27:48;;;;;;;15.68;9.13;;;;;;;22.28;87.28;100441.38;5087431;28;20043;-70
2022/08/05 03:30:52;;;;;;;13.07;7.25;;;;;;;22.31;87.58;100456.22;5087992;28;20073;-70
2022/08/05 03:33:57;;;;;;;12.45;7.35;;;;;;;21.98;88.38;100471.94;5098968;28;20054;-70
2022/08/05 03:37:02;;;;;;;17.77;8.02;;;;;;;22.29;87.24;100495.50;5099890;28;20409;-70
2022/08/05 03:40:07;;;;;;;11.90;7.53;;;;;;;22.41;86.36;100482.75;5082323;28;20052;-70
2022/08/05 03:43:12;;;;;;;19.30;7.85;;;;;;;22.61;85.82;100488.69;5071870;28;20868;-70
2022/08/05 03:46:15;;;;;;;14.35;7.55;;;;;;;22.55;86.49;100479.47;5089267;28;20706;-70
2022/08/05 03:49:19;;;;;;;10.75;7.65;;;;;;;22.48;86.84;100483.78;5111632;28;20042;-70
2022/08/05 03:52:25;;;;;;;10.90;7.90;;;;;;;;;;5111567;28;20092;-70
2022/08/05 03:55:34;;;;;;;11.82;7.90;;;;;;;22.31;87.67;100488.19;5111451;28;20080;-71
2022/08/05 03:58:41;;;;;;;13.85;8.27;;;;;;;22.14;88.84;100476.53;5111506;28;20099;-71
2022/08/05 04:01:47;;;;;;;14.32;8.43;;;;;;;22.18;88.80;100439.84;5101575;28;20039;-70
2022/08/05 04:04:51;;;;;;;11.25;8.25;;;;;;;22.21;88.76;100397.75;5070643;28;20059;-70
2022/08/05 04:07:55;;;;;;;13.45;9.05;;;;;;;22.17;88.84;100390.22;5071700;28;20054;-70
2022/08/05 04:11:01;;;;;;;13.90;9.75;;;;;;;22.23;88.64;100376.28;5071228;28;20048;-70
2022/08/05 04:14:06;;;;;;;9.90;7.70;;;;;;;22.15;89.22;100371.72;5070638;28;20113;-70
2022/08/05 04:17:10;;;;;;;14.18;8.90;;;;;;;22.36;88.26;100387.31;5070729;28;20049;-71
2022/08/05 04:20:22;;;;;;;14.15;9.10;;;;;;;22.21;88.13;100402.25;5070320;28;20117;-70
2022/08/05 04:23:27;;;;;;;15.57;8.85;;;;;;;22.44;86.98;100386.53;5070122;28;20043;-65
2022/08/05 04:26:30;;;;;;;16.60;9.55;;;;;;;22.28;86.49;100411.25;5070788;28;20047;-64
2022/08/05 04:29:33;;;;;;;15.50;9.48;;;;;;;22.14;88.24;100409.13;5070632;28;20067;-66
2022/08/05 04:32:36;;;;;;;11.32;9.82;;;;;;;22.24;87.95;100433.88;5070900;28;20047;-64
2022/08/05 04:35:41;;;;;;;15.00;10.65;;;;;;;22.04;88.81;100476.66;5059037;28;20529;-64
2022/08/05 04:38:45;;;;;;;12.50;10.43;;;;;;;21.96;88.94;100508.56;5071246;28;20106;-65
2022/08/05 04:41:49;;;;;;;16.05;9.30;;;;;;;21.65;91.13;100501.97;5070488;28;20129;-65
2022/08/05 04:44:52;;;;;;;12.32;7.20;;;;;;;21.67;87.70;100479.53;5070633;28;20052;-65
2022/08/05 04:48:25;;;;;;;12.38;7.80;;;;;;;22.15;86.39;100466.75;5070230;28;20050;-65
2022/08/05 04:51:29;;;;;;;14.90;9.80;;;;;;;22.03;87.50;100461.66;5069937;28;20651;-64
2022/08/05 04:54:32;;;;;;;12.35;6.78;;;;;;;21.62;87.91;100441.91;5070379;28;20051;-65
2022/08/05 04:57:35;;;;;;;9.90;6.63;;;;;;;21.87;87.22;100378.22;5070440;28;20723;-64
2022/08/05 05:00:40;;;;;;;12.25;8.07;;;;;;;22.13;86.79;100378.19;5070111;28;20469;-65
2022/08/05 05:03:43;;;;;;;16.75;8.82;;;;;;;21.91;87.88;100399.03;5070048;28;20086;-64
2022/08/05 05:06:46;;;;;;;12.90;6.80;;;;;;;21.99;88.11;100409.75;5068889;28;20516;-65
2022/08/05 05:09:50;;;;;;;14.07;7.93;;;;;;;22.09;87.17;100424.78;5070258;28;20090;-64
2022/08/05 05:12:54;;;;;;;13.02;7.80;;;;;;;21.98;87.42;100415.19;5070414;28;20048;-64
2022/08/05 05:15:57;;;;;;;10.02;7.13;;;;;;;21.99;87.47;100431.03;5070004;28;20047;-64
2022/08/05 05:19:00;;;;;;;13.02;7.95;;;;;;;21.62;87.86;100414.47;5069817;28;20043;-65
2022/08/05 05:22:04;;;;;;;10.77;7.30;;;;;;;21.89;85.64;100424.13;5069277;28;20068;-64
2022/08/05 05:25:08;;;;;;;14.45;8.40;;;;;;;22.05;85.65;100435.75;5068648;28;20464;-64
2022/08/05 05:28:11;;;;;;;13.80;8.52;;;;;;;21.91;87.91;100432.78;5069592;28;20052;-63
2022/08/05 05:31:14;;;;;;;11.02;7.63;;;;;;;22.01;87.42;100420.22;5070201;28;20047;-63
2022/08/05 05:34:18;;;;;;;12.20;7.32;;;;;;;21.99;87.06;100407.06;5069673;28;20097;-63
2022/08/05 05:37:21;;;;;;;13.18;8.32;;;;;;;21.99;87.00;100425.72;5056804;28;20075;-62
2022/08/05 05:40:25;;;;;;;12.80;7.30;;;;;;;21.78;87.76;100441.19;5068935;28;20182;-65
2022/08/05 05:47:37;;;;;;;14.93;8.15;;;;;;;21.87;88.09;100450.91;5068868;28;20139;-66
2022/08/05 05:50:41;;;;;;;11.75;8.15;;;;;;;22.03;87.12;100395.09;5070274;28;20055;-65
2022/08/05 05:53:44;;;;;;;11.63;6.95;;;;;;;22.14;86.61;100385.16;5088996;28;20092;-65
2022/08/05 05:56:47;;;;;;;12.88;7.85;;;;;;;21.92;88.05;100379.41;5089038;28;20098;-65
2022/08/05 05:59:51;;;;;;;14.20;8.35;;;;;;;21.91;87.99;100369.75;5087244;28;20547;-65
2022/08/05 06:02:54;;;;;;;8.65;7.22;;;;;;;21.74;89.35;100410.56;5087603;28;20035;-66
2022/08/05 06:05:58;;;;;;;11.30;7.88;;;;;;;21.74;88.93;100410.56;5083860;28;20047;-66
2022/08/05 06:09:05;;;;;;;15.38;6.90;;;;;;;21.81;88.18;100350.38;5086264;28;20042;-66
2022/08/05 06:12:09;;;;;;;12.93;7.22;;;;;;;21.82;88.57;100373.34;5083961;28;20729;-67
2022/08/05 06:15:12;;;;;;;11.70;8.10;;;;;;;21.78;89.75;100401.25;5084908;28;20121;-66
2022/08/05 06:18:16;;;;;;;11.98;7.07;;;;;;;21.92;89.05;100403.38;5086826;28;20039;-67
2022/08/05 06:21:20;;;;;;;10.60;6.70;;;;;;;21.97;87.84;100418.88;5088218;28;20129;-66
2022/08/05 06:24:24;;;;;;;8.00;5.30;;;;;;;21.91;86.19;100401.69;5088368;28;20046;-65
2022/08/05 06:27:27;;;;;;;13.80;5.97;;;;;;;22.13;86.49;100392.34;5076873;28;20085;-67
2022/08/05 06:30:30;;;;;;;8.30;5.65;;;;;;;22.20;86.87;100387.25;5088428;28;20043;-67
2022/08/05 06:33:34;;;;;;;9.68;6.38;;;;;;;22.04;87.09;100395.94;5088879;28;20109;-67
2022/08/05 06:36:39;;;;;;;14.48;6.20;;;;;;;21.95;88.95;100394.22;5088954;28;20066;-66
2022/08/05 06:39:43;;;;;;;8.35;5.32;;;;;;;22.22;87.17;100377.28;5087942;28;20058;-67
2022/08/05 06:42:47;;;;;;;11.23;5.20;;;;;;;22.40;85.03;100361.19;5088720;28;20055;-67
2022/08/05 06:45:50;;;;;;;12.80;7.30;;;;;;;22.19;88.23;100394.41;5088951;28;20070;-67
2022/08/05 06:48:54;;;;;;;9.98;6.45;;;;;;;22.02;90.37;100430.72;5088403;28;20524;-65
2022/08/05 06:52:00;;;;;;;10.25;5.97;;;;;;;21.94;90.14;100404.03;5088294;28;20051;-67
2022/08/05 06:55:05;;;;;;;8.52;5.07;;;;;;;22.36;87.85;100429.94;5088042;28;20051;-66
2022/08/05 06:58:10;;;;;;;9.70;4.28;;;;;;;22.39;86.42;100416.28;5087716;28;20043;-66
2022/08/05 07:01:15;;;;;;;11.77;5.50;;;;;;;22.48;87.36;100436.66;5071150;28;20437;-67
2022/08/05 07:04:18;;;;;;;6.40;4.03;;;;;;;22.72;85.38;100425.28;5068050;28;20042;-67
2022/08/05 07:07:22;;;;;;;5.25;3.33;;;;;;;22.33;84.15;100422.25;5068409;28;20049;-66
2022/08/05 07:10:25;;;;;;;5.88;3.15;;;;;;;22.42;83.25;100421.31;5080971;28;20074;-67
2022/08/05 07:17:01;;;;;;;7.53;3.65;;;;;;;22.76;81.81;100439.13;5048544;28;20078;-66
2022/08/05 07:20:05;;;;;;;8.10;3.42;;;;;;;22.48;82.44;100439.31;5088081;28;20420;-66
2022/08/05 07:23:12;;;;;;;6.95;3.30;;;;;;;22.52;80.66;100440.66;5087947;28;20066;-67
2022/08/05 07:26:16;;;;;;;7.82;3.53;;;;;;;22.39;83.28;100452.75;5088493;28;20047;-65
2022/08/05 07:29:20;;;;;;;5.35;3.50;;;;;;;22.48;82.65;100457.97;5088654;28;20172;-67
2022/08/05 07:32:23;;;;;;;9.68;3.92;;;;;;;22.20;83.55;100469.78;5081170;28;20048;-69
2022/08/05 07:35:26;;;;;;;7.75;3.90;;;;;;;22.55;82.40;100473.31;5067656;28;20051;-69
2022/08/05 07:38:30;;;;;;;10.15;4.75;;;;;;;22.69;80.94;100467.41;5067976;28;20055;-69
2022/08/05 07:41:35;;;;;;;7.53;3.67;;;;;;;22.64;83.08;100485.69;5067620;28;20140;-67
2022/08/05 07:44:38;;;;;;;7.03;3.95;;;;;;;23.11;80.33;100495.91;5068388;28;20185;-67
2022/08/05 07:47:41;;;;;;;8.70;3.47;;;;;;;23.16;80.20;100506.91;5068275;28;20055;-64
2022/08/05 07:50:44;;;;;;;8.98;3.25;;;;;;;23.37;78.95;100507.31;5069065;28;20094;-64
2022/08/05 07:53:48;;;;;;;8.63;3.38;;;;;;;23.12;81.10;100510.91;5071336;28;20052;-64
2022/08/05 07:56:51;;;;;;;6.70;3.08;;;;;;;23.05;79.51;100512.56;5070251;28;20598;-66
2022/08/05 07:59:54;;;;;;;5.55;3.00;;;;;;;23.12;78.02;100521.59;5070138;28;20151;-65
2022/08/05 08:02:58;;;;;;;5.70;2.63;;;;;;;23.40;75.01;100517.66;5070763;28;20154;-66
2022/08/05 08:06:01;;;;;;;7.70;2.88;;;;;;;23.43;76.68;100522.66;5070825;28;20464;-69
2022/08/05 08:09:05;;;;;;;9.52;2.65;;;;;;;23.41;77.83;100521.97;5057550;28;20092;-65
2022/08/05 08:12:09;;;;;;;6.05;2.85;;;;;;;23.24;75.54;100530.97;5068700;28;20145;-65
2022/08/05 08:15:12;;;;;;;3.80;2.42;;;;;;;22.64;75.09;100525.66;5069308;28;20083;-66
2022/08/05 08:18:17;;;;;;;7.80;2.92;;;;;;;23.09;76.16;100536.06;5069646;28;20512;-68
2022/08/05 08:21:20;;;;;;;4.32;2.70;;;;;;;23.09;74.03;100537.91;5069793;28;20146;-77
2022/08/05 08:24:23;;;;;;;5.43;3.10;;;;;;;23.20;74.96;100545.63;5075235;28;20093;-74
2022/08/05 08:27:27;;;;;;;5.40;2.50;;;;;;;22.87;73.41;100542.78;5090010;28;20047;-72
2022/08/05 08:30:30;;;;;;;5.20;2.50;;;;;;;23.05;74.09;100545.41;5089568;28;20041;-73
2022/08/05 08:33:34;;;;;;;4.47;2.25;;;;;;;22.78;72.92;100537.56;5089111;28;20078;-65
2022/08/05 08:36:37;;;;;;;4.43;2.63;;;;;;;23.00;72.67;100534.34;5090070;28;20375;-65
2022/08/05 08:39:41;;;;;;;5.25;2.78;;;;;;;23.38;72.26;100527.66;5090105;28;20070;-65
2022/08/05 08:42:49;;;;;;;7.45;2.80;;;;;;;23.42;73.47;100514.81;5089920;28;20536;-65
2022/08/05 08:45:54;;;;;;;4.80;2.50;;;;;;;23.60;72.02;100512.00;5078054;28;20596;-66
2022/08/05 08:48:58;;;;;;;4.45;2.75;;;;;;;23.55;72.30;100519.69;5089953;28;20047;-66
2022/08/05 08:52:12;;;;;;;5.25;2.42;;;;;;;23.24;70.74;100525.63;5089206;28;20149;-66
2022/08/05 08:55:15;;;;;;;7.45;2.42;;;;;;;23.35;72.63;100524.47;5089938;28;20486;-66
2022/08/05 08:58:19;;;;;;;6.57;2.40;;;;;;;23.42;71.58;100521.00;5089167;28;20575;-65
2022/08/05 09:01:23;;;;;;;5.00;3.20;;;;;;;23.39;71.69;100516.00;5088969;28;20051;-65
2022/08/05 09:04:26;;;;;;;7.72;3.25;;;;;;;23.94;70.97;100508.41;5089105;28;20081;-68
2022/08/05 09:07:30;;;;;;;7.15;2.55;;;;;;;23.86;69.66;100507.38;5089734;28;20043;-67
2022/08/05 09:10:34;;;;;;;5.85;2.58;;;;;;;23.37;70.63;100512.66;5090635;28;20546;-68
2022/08/05 09:13:37;;;;;;;4.90;2.80;;;;;;;23.20;72.74;100524.28;5090138;28;20066;-68
2022/08/05 09:16:41;;;;;;;11.18;3.25;;;;;;;23.38;72.16;100527.66;5089954;28;20085;-68
2022/08/05 09:19:45;;;;;;;5.95;3.00;;;;;;;23.57;71.58;100544.38;5087643;28;20421;-66
2022/08/05 09:23:13;;;;;;;6.50;3.13;;;;;;;23.37;70.82;100543.84;5056263;28;20090;-66
2022/08/05 09:26:19;;;;;;;4.45;2.85;;;;;;;23.13;71.69;100532.09;5068167;28;20125;-66
2022/08/05 09:29:48;;;;;;;4.95;2.42;;;;;;;23.42;71.29;100521.00;5067910;28;20216;-65
2022/08/05 09:32:52;;;;;;;4.35;3.13;;;;;;;23.74;70.43;100508.75;5067299;28;20055;-65
2022/08/05 09:36:00;;;;;;;4.60;3.13;;;;;;;23.35;70.95;100514.63;5068190;28;20417;-67
2022/08/05 09:39:07;;;;;;;5.32;3.20;;;;;;;23.29;70.99;100509.94;5054734;28;20082;-66
2022/08/05 09:42:19;;;;;;;6.15;4.05;;;;;;;23.42;71.03;100482.78;5067644;28;20056;-66
2022/08/05 09:45:34;;;;;;;7.90;3.33;;;;;;;23.80;70.13;100489.38;5055817;28;20587;-66
2022/08/05 09:48:38;;;;;;;3.83;2.80;;;;;;;23.70;71.76;100495.88;5055604;28;20112;-66
2022/08/05 09:51:42;;;;;;;7.45;3.08;;;;;;;23.83;71.05;100505.03;5067597;28;20571;-64
2022/08/05 09:54:53;;;;;;;4.88;3.00;;;;;;;23.75;70.17;100514.91;5067447;28;20074;-64
2022/08/05 09:57:58;;;;;;;4.75;3.15;;;;;;;23.69;70.71;100521.75;5066732;28;20083;-64
2022/08/05 10:01:05;;;;;;;6.57;3.08;;;;;;;23.66;70.48;100516.69;5067396;28;20533;-67
2022/08/05 10:04:13;;;;;;;5.30;3.05;;;;;;;23.78;70.82;100519.91;5067374;28;20116;-65
2022/08/05 10:07:16;;;;;;;4.95;3.30;;;;;;;24.05;68.69;100516.06;5077371;28;20116;-65
2022/08/05 10:10:30;;;;;;;5.22;3.28;;;;;;;23.90;68.50;100503.41;5088296;28;20042;-69
2022/08/05 10:13:36;;;;;;;5.93;3.80;;;;;;;24.00;67.81;100505.91;5087044;28;20097;-65
2022/08/05 10:16:40;;;;;;;7.28;4.70;;;;;;;23.65;68.92;100504.34;5087587;28;20121;-65
2022/08/05 10:19:45;;;;;;;6.03;4.47;;;;;;;23.71;69.00;100525.09;5082074;28;20524;-67
2022/08/05 10:22:49;;;;;;;6.10;4.22;;;;;;;23.68;69.58;100530.72;5087900;28;20582;-65
2022/08/05 10:25:58;;;;;;;8.85;4.00;;;;;;;23.90;69.08;100543.44;5087278;28;20055;-65
2022/08/05 10:29:01;;;;;;;7.97;4.47;;;;;;;23.58;70.00;100562.03;5087509;28;20063;-65
2022/08/05 10:32:06;;;;;;;8.45;4.45;;;;;;;23.39;69.66;100569.38;5087144;28;20096;-66
2022/08/05 10:35:09;;;;;;;4.47;3.70;;;;;;;23.41;69.26;100574.53;5087030;28;20039;-65
2022/08/05 10:38:13;;;;;;;7.22;4.95;;;;;;;23.15;68.98;100577.28;5087370;28;20070;-64
2022/08/05 10:41:33;;;;;;;4.78;3.58;;;;;;;23.07;69.95;100575.41;5086778;28;20142;-65
2022/08/05 10:44:38;;;;;;;6.38;4.63;;;;;;;23.20;69.31;100580.31;5086048;28;20177;-65
2022/08/05 10:47:43;;;;;;;5.70;4.35;;;;;;;23.25;69.58;100588.63;5086017;28;20181;-65
2022/08/05 10:51:19;;;;;;;7.68;4.72;;;;;;;23.44;68.57;100599.03;5087191;28;20082;-64
2022/08/05 10:54:44;;;;;;;6.82;4.35;;;;;;;23.57;67.47;100589.75;5078554;28;20050;-66
2022/08/05 10:57:47;;;;;;;7.32;4.70;;;;;;;23.60;67.39;100586.75;5086642;28;20131;-67
2022/08/05 11:00:54;;;;;;;5.85;4.10;;;;;;;23.37;67.31;100595.38;5074458;28;20122;-67
2022/08/05 11:04:10;;;;;;;6.30;4.90;;;;;;;23.65;66.58;100589.78;5087546;28;20082;-67
2022/08/05 11:07:20;;;;;;;5.20;4.60;;;;;;;23.55;66.49;100611.28;5087388;28;20657;-68
2022/08/05 11:10:28;;;;;;;5.93;4.45;;;;;;;23.47;66.13;100608.56;5087191;28;20082;-67
2022/08/05 11:13:42;;;;;;;6.38;4.13;;;;;;;23.59;65.79;100601.94;5086371;28;20062;-67
2022/08/05 11:17:24;;;;;;;5.70;3.95;;;;;;;23.59;64.91;100617.13;5073985;28;20055;-67
2022/08/05 11:20:46;;;;;;;5.75;4.53;;;;;;;23.39;64.97;100612.06;5072010;28;20047;-68
2022/08/05 11:23:50;;;;;;;4.85;4.32;;;;;;;23.63;65.21;100608.59;5066838;28;20169;-68
2022/08/05 11:27:30;;;;;;;6.10;4.15;;;;;;;23.66;63.80;100608.28;5072803;28;20423;-68
2022/08/05 11:31:02;;;;;;;5.45;4.15;;;;;;;24.15;62.16;100618.22;5072141;28;20547;-68
2022/08/05 11:34:07;;;;;;;6.28;4.75;;;;;;;24.08;63.96;100607.38;5076448;28;20112;-69
2022/08/05 11:37:40;;;;;;;12.73;5.47;;;;;;;24.41;63.20;100612.78;5089624;28;20517;-68
2022/08/05 11:41:02;;;;;;;5.30;4.63;;;;;;;23.80;62.69;100606.00;5087977;28;20413;-70
2022/08/05 11:44:11;;;;;;;5.38;4.70;;;;;;;24.01;62.32;100621.56;5091415;28;20105;-69
2022/08/05 11:47:21;;;;;;;6.40;4.45;;;;;;;23.91;62.08;100619.06;5077914;28;20546;-70
2022/08/05 11:50:37;;;;;;;7.53;4.85;;;;;;;23.81;61.85;100621.03;5089280;28;20113;-70
2022/08/05 11:53:40;;;;;;;5.18;4.40;;;;;;;23.91;61.26;100616.38;5090614;28;20075;-71
2022/08/05 11:56:55;;;;;;;7.68;4.47;;;;;;;23.87;60.72;100631.91;5087973;28;20492;-68
2022/08/05 12:00:03;;;;;;;6.03;4.30;;;;;;;23.85;61.42;100633.88;5077210;28;20578;-69
2022/08/05 12:03:22;;;;;;;6.82;5.18;;;;;;;23.87;61.16;100642.59;5089032;28;20148;-69
2022/08/05 12:06:30;;;;;;;7.35;5.50;;;;;;;23.95;61.93;100654.28;5071021;28;20052;-69
2022/08/05 12:09:39;;;;;;;7.90;5.32;;;;;;;23.64;61.59;100661.03;5070746;28;20655;-70
2022/08/05 12:12:42;;;;;;;5.88;5.28;;;;;;;23.38;62.00;100674.41;5070966;28;20048;-69
2022/08/05 12:15:46;;;;;;;6.00;4.93;;;;;;;23.61;61.37;100672.03;5070818;28;20125;-69
2022/08/05 12:18:50;;;;;;;6.25;4.90;;;;;;;23.42;61.85;100677.59;5071683;28;20040;-69
2022/08/05 12:21:53;;;;;;;7.82;5.45;;;;;;;23.36;62.29;100676.41;5070469;28;20500;-70
2022/08/05 12:24:56;;;;;;;6.03;5.43;;;;;;;23.77;61.44;100671.28;5076586;28;20445;-69
2022/08/05 12:27:59;;;;;;;5.93;5.18;;;;;;;24.29;60.59;100673.69;5087250;28;20035;-71
2022/08/05 12:31:04;;;;;;;8.65;6.03;;;;;;;24.18;61.38;100681.19;5087194;28;20074;-68
2022/08/05 12:34:08;;;;;;;6.65;5.80;;;;;;;23.89;62.94;100683.28;5088160;28;20078;-69
2022/08/05 12:37:15;;;;;;;8.30;7.40;;;;;;;23.86;62.02;100698.81;5090495;28;20089;-69
2022/08/05 12:40:23;;;;;;;13.02;11.93;;;;;;;23.82;62.97;100705.47;5090961;28;20527;-70
2022/08/05 12:43:27;;;;;;;15.18;13.82;;;;;;;23.72;62.31;100724.31;5090846;28;20101;-68
2022/08/05 12:47:20;;;;;;;17.73;15.93;;;;;;;23.18;64.18;100734.31;5090561;28;20051;-68
2022/08/05 12:50:23;;;;;;;18.35;16.52;;;;;;;23.49;63.55;100748.03;5090368;28;20070;-70
2022/08/05 12:53:27;;;;;;;18.02;16.38;;;;;;;23.33;63.50;100746.09;5090841;28;20097;-69
2022/08/05 12:56:32;;;;;;;19.85;18.00;;;;;;;23.20;63.65;100751.03;5091790;28;20046;-69
2022/08/05 12:59:52;;;;;;;18.77;17.05;;;;;;;23.00;63.03;100749.53;5090107;28;20051;-70
2022/08/05 13:02:56;;;;;;;21.58;17.45;;;;;;;22.88;63.38;100756.94;5090140;28;20550;-70
2022/08/05 13:06:00;;;;;;;18.35;16.65;;;;;;;22.55;63.97;100771.78;5076992;28;20043;-69
2022/08/05 13:09:10;;;;;;;18.80;17.10;;;;;;;23.02;62.75;100767.06;5089300;28;21114;-69
2022/08/05 13:12:16;;;;;;;19.75;18.02;;;;;;;23.14;63.29;100775.66;5090589;28;20097;-70
2022/08/05 13:15:19;;;;;;;19.83;17.88;;;;;;;23.24;62.34;100786.22;5090348;28;20039;-70
2022/08/05 13:18:23;;;;;;;19.98;18.08;;;;;;;23.15;62.77;100798.66;5089458;28;20417;-69
2022/08/05 13:21:28;;;;;;;19.42;17.73;;;;;;;22.63;63.82;100803.84;5089495;28;20042;-69
2022/08/05 13:24:31;;;;;;;17.48;15.73;;;;;;;22.21;64.21;100823.06;5077257;28;20177;-69
2022/08/05 13:27:45;;;;;;;16.23;14.70;;;;;;;22.13;65.53;100821.06;5089979;28;20046;-69
2022/08/05 13:30:49;;;;;;;13.43;11.85;;;;;;;22.22;64.77;100836.22;5089553;28;20140;-70
2022/08/05 13:33:53;;;;;;;13.02;11.10;;;;;;;22.02;66.12;100845.25;5089514;28;20482;-68
2022/08/05 13:36:59;;;;;;;11.85;9.63;;;;;;;21.94;65.40;100863.75;5090170;28;20131;-68
2022/08/05 13:40:02;;;;;;;10.65;8.45;;;;;;;22.04;65.65;100859.25;5090005;28;20043;-69
2022/08/05 13:43:06;;;;;;;8.85;7.95;;;;;;;21.78;65.88;100864.38;5088968;28;20059;-69
2022/08/05 13:46:17;;;;;;;7.68;6.63;;;;;;;21.79;66.06;100858.06;5089174;28;20051;-69
2022/08/05 13:49:20;;;;;;;9.30;5.88;;;;;;;22.20;64.57;100856.81;5088774;28;20116;-69
2022/08/05 13:52:25;;;;;;;5.28;4.43;;;;;;;22.18;63.84;100844.66;5089620;28;20507;-70
2022/08/05 13:55:28;;;;;;;6.82;4.18;;;;;;;22.33;62.85;100856.47;5089325;28;20161;-70
2022/08/05 13:58:32;;;;;;;5.75;3.70;;;;;;;22.19;63.23;100872.94;5088922;28;20157;-70
2022/08/05 14:01:35;;;;;;;4.15;2.85;;;;;;;22.23;62.91;100861.84;5088393;28;20631;-69
2022/08/05 14:08:04;;;;;;;3.13;2.20;;;;;;;21.99;64.10;100859.69;5084938;28;20096;-72
2022/08/05 14:11:07;;;;;;;2.85;1.90;;;;;;;22.36;62.72;100860.66;5086659;28;20104;-71
2022/08/05 14:14:11;;;;;;;2.78;1.48;;;;;;;22.22;62.98;100856.69;5086781;28;20105;-70
2022/08/05 14:17:14;;;;;;;3.05;1.30;;;;;;;21.85;63.76;100860.16;5087371;28;20097;-70
2022/08/05 14:20:21;;;;;;;2.80;1.30;;;;;;;21.80;64.25;100859.75;5087221;28;20058;-70
2022/08/05 14:23:25;;;;;;;2.30;0.90;;;;;;;21.88;63.63;100870.50;5085347;28;20050;-71
2022/08/05 14:26:29;;;;;;;2.38;0.90;;;;;;;22.10;63.55;100869.31;5086261;28;20109;-70
2022/08/05 14:29:38;;;;;;;2.33;0.82;;;;;;;22.28;62.27;100861.41;5086508;28;20520;-71
2022/08/05 14:32:42;;;;;;;2.55;0.70;;;;;;;22.31;62.29;100855.78;5085170;28;20079;-70
2022/08/05 14:35:46;;;;;;;2.40;0.73;;;;;;;22.68;60.73;100857.53;5085718;28;20554;-70